TimeCDT,TemperatureF,Dew PointF,Humidity,Sea Level PressureIn,VisibilityMPH,Wind Direction,Wind SpeedMPH,Gust SpeedMPH,PrecipitationIn,Events,Conditions,WindDirDegrees,DateUTC
12:58 AM,86.9,70.7,58,29.70,10.0,SE,21.9,-,N/A,,Clear,130,2013-05-20 05:58:00
1:58 AM,84.7,70.0,61,29.70,10.0,SE,17.3,-,N/A,,Clear,130,2013-05-20 06:58:00
2:58 AM,80.8,69.4,68,29.70,10.0,ESE,17.3,-,N/A,,Clear,120,2013-05-20 07:58:00
3:58 AM,78.4,68.9,72,29.70,10.0,SE,16.1,-,N/A,,Clear,130,2013-05-20 08:58:00
4:58 AM,76.8,68.5,75,29.70,10.0,SE,12.7,-,N/A,,Clear,130,2013-05-20 09:58:00
5:58 AM,75.6,68.4,78,29.72,10.0,SE,13.8,-,N/A,,Clear,130,2013-05-20 10:58:00
6:58 AM,74.3,68.5,82,29.73,10.0,SE,12.7,-,N/A,,Clear,130,2013-05-20 11:58:00
7:58 AM,74.8,68.9,82,29.74,10.0,SE,13.8,-,N/A,,Partly Cloudy,130,2013-05-20 12:58:00
8:33 AM,75.2,69.8,83,29.79,10.0,SE,15.0,-,N/A,,Mostly Cloudy,140,2013-05-20 13:33:00
8:43 AM,75.2,68.0,78,29.80,10.0,SE,13.8,-,N/A,,Mostly Cloudy,140,2013-05-20 13:43:00
8:58 AM,76.5,68.9,77,29.75,10.0,SE,16.1,-,N/A,,Mostly Cloudy,140,2013-05-20 13:58:00
9:03 AM,77.0,68.0,74,29.79,10.0,SE,18.4,-,N/A,,Scattered Clouds,130,2013-05-20 14:03:00
9:23 AM,77.0,69.8,78,29.80,10.0,SE,16.1,-,N/A,,Mostly Cloudy,140,2013-05-20 14:23:00
9:58 AM,78.6,69.1,72,29.77,10.0,SSE,15.0,-,N/A,,Overcast,150,2013-05-20 14:58:00
10:58 AM,79.9,69.3,70,29.77,10.0,SE,6.9,-,N/A,,Overcast,130,2013-05-20 15:58:00
11:58 AM,81.5,69.6,67,29.77,10.0,SE,8.1,-,N/A,,Overcast,130,2013-05-20 16:58:00
12:28 PM,84.2,69.8,62,29.80,10.0,ESE,11.5,-,N/A,,Mostly Cloudy,120,2013-05-20 17:28:00
12:58 PM,86.4,70.2,58,29.75,10.0,South,8.1,-,N/A,,Mostly Cloudy,180,2013-05-20 17:58:00
1:58 PM,89.1,70.2,53,29.71,10.0,Variable,2.3,-,N/A,,Mostly Cloudy,0,2013-05-20 18:58:00
2:58 PM,92.5,69.8,47,29.70,10.0,Variable,2.3,-,N/A,,Scattered Clouds,0,2013-05-20 19:58:00
3:58 PM,94.8,69.3,43,29.65,10.0,Variable,3.5,-,N/A,,Clear,0,2013-05-20 20:58:00
4:58 PM,95.7,68.5,41,29.62,10.0,ESE,8.1,-,N/A,,Partly Cloudy,120,2013-05-20 21:58:00
5:58 PM,97.2,66.6,37,29.60,10.0,SSW,4.6,-,N/A,,Clear,200,2013-05-20 22:58:00
6:58 PM,97.7,66.2,36,29.60,10.0,SSE,4.6,-,N/A,,Clear,150,2013-05-20 23:58:00
7:58 PM,96.4,66.7,38,29.60,10.0,ESE,13.8,-,N/A,,Clear,120,2013-05-21 00:58:00
8:02 PM,96.8,66.2,37,29.64,10.0,SSE,15.0,-,N/A,,Clear,160,2013-05-21 01:02:00
8:58 PM,93.9,66.7,41,29.62,10.0,SE,5.8,-,N/A,,Clear,130,2013-05-21 01:58:00
9:58 PM,91.6,67.3,45,29.65,10.0,SE,6.9,-,N/A,,Scattered Clouds,140,2013-05-21 02:58:00
10:58 PM,89.6,68.0,49,29.67,10.0,SE,11.5,-,N/A,,Clear,130,2013-05-21 03:58:00
11:58 PM,88.0,68.4,52,29.68,10.0,SE,12.7,-,N/A,,Partly Cloudy,140,2013-05-21 04:58:00